createdAt,value
2022-10-12T00:04:07.402Z,21.62
2022-10-12T00:09:11.098Z,20.98
2022-10-12T00:14:14.956Z,15.30
2022-10-12T00:19:22.369Z,15.27
2022-10-12T00:24:28.476Z,27.80
2022-10-12T00:29:32.298Z,19.33
2022-10-12T00:34:37.421Z,19.10
2022-10-12T00:39:41.376Z,21.98
2022-10-12T00:44:47.441Z,17.08
2022-10-12T00:49:56.675Z,17.00
2022-10-12T00:55:02.007Z,21.55
2022-10-12T01:00:08.481Z,17.15
2022-10-12T01:05:13.796Z,22.52
2022-10-12T01:10:17.944Z,24.02
2022-10-12T01:15:23.443Z,20.45
2022-10-12T01:20:46.668Z,24.02
2022-10-12T01:26:07.452Z,18.92
2022-10-12T01:31:20.450Z,24.25
2022-10-12T01:36:32.858Z,22.00
2022-10-12T01:41:40.882Z,20.42
2022-10-12T01:46:47.619Z,21.48
2022-10-12T01:52:02.005Z,20.08
2022-10-12T01:57:12.429Z,19.08
2022-10-12T02:02:22.607Z,22.35
2022-10-12T02:07:33.649Z,19.98
2022-10-12T02:12:41.449Z,17.20
2022-10-12T02:17:50.671Z,21.30
2022-10-12T02:22:55.759Z,19.75
2022-10-12T02:28:06.616Z,18.50
2022-10-12T02:33:17.389Z,14.87
2022-10-12T02:38:26.540Z,16.48
2022-10-12T02:43:37.864Z,15.57
2022-10-12T02:48:44.850Z,15.52
2022-10-12T02:53:49.206Z,14.13
2022-10-12T02:58:53.224Z,14.05
2022-10-12T03:03:58.206Z,17.40
2022-10-12T03:09:01.985Z,19.37
2022-10-12T03:14:05.845Z,20.05
2022-10-12T03:19:11.064Z,14.93
2022-10-12T03:24:14.830Z,21.55
2022-10-12T03:29:18.830Z,21.80
2022-10-12T03:34:23.844Z,17.52
2022-10-12T03:39:27.512Z,18.00
2022-10-12T03:44:31.151Z,21.80
2022-10-12T03:49:36.115Z,14.02
2022-10-12T03:54:39.765Z,14.98
2022-10-12T03:59:43.478Z,19.70
2022-10-12T04:04:48.510Z,16.17
2022-10-12T04:09:52.190Z,19.33
2022-10-12T04:14:55.868Z,14.70
2022-10-12T04:20:00.852Z,14.38
2022-10-12T04:25:04.756Z,15.23
2022-10-12T04:30:09.772Z,16.27
2022-10-12T04:35:14.867Z,18.80
2022-10-12T04:40:18.595Z,15.38
2022-10-12T04:45:22.254Z,14.70
2022-10-12T04:50:30.032Z,20.95
2022-10-12T04:55:34.186Z,20.42
2022-10-12T05:00:38.007Z,19.52
2022-10-12T05:05:45.550Z,12.50
2022-10-12T05:10:49.293Z,21.50
2022-10-12T05:15:53.035Z,20.08
2022-10-12T05:20:58.039Z,23.20
2022-10-12T05:26:01.777Z,23.35
2022-10-12T05:31:05.522Z,17.12
2022-10-12T05:36:10.948Z,21.30
2022-10-12T05:41:14.639Z,25.33
2022-10-12T05:46:18.317Z,21.98
2022-10-12T05:51:28.577Z,16.02
2022-10-12T05:56:32.614Z,20.88
2022-10-12T06:01:36.425Z,21.15
2022-10-12T06:06:41.451Z,26.05
2022-10-12T06:11:45.136Z,22.58
2022-10-12T06:16:51.100Z,27.25
2022-10-12T06:21:59.375Z,23.12
2022-10-12T06:27:03.050Z,22.48
2022-10-12T06:32:06.820Z,19.20
2022-10-12T06:37:25.334Z,22.10
2022-10-12T06:42:35.613Z,29.25
2022-10-12T06:47:39.364Z,23.20
2022-10-12T06:52:44.578Z,33.00
2022-10-12T06:57:48.271Z,23.67
2022-10-12T07:02:52.332Z,21.77
2022-10-12T07:07:57.355Z,29.02
2022-10-12T07:13:01.031Z,29.60
2022-10-12T07:18:05.059Z,24.02
2022-10-12T07:23:10.257Z,22.62
2022-10-12T07:28:14.019Z,20.05
2022-10-12T07:33:17.956Z,27.10
2022-10-12T07:38:22.952Z,26.77
2022-10-12T07:43:26.714Z,29.92
2022-10-12T07:48:30.541Z,32.05
2022-10-12T07:53:36.825Z,25.90
2022-10-12T07:58:40.524Z,30.73
2022-10-12T08:03:44.319Z,28.10
2022-10-12T08:08:49.495Z,41.45
2022-10-12T08:13:53.255Z,30.33
2022-10-12T08:18:56.980Z,39.00
2022-10-12T08:24:02.050Z,33.58
2022-10-12T08:29:07.029Z,40.65
2022-10-12T08:34:10.895Z,37.42
2022-10-12T08:39:18.641Z,36.50
2022-10-12T08:44:53.628Z,38.13
2022-10-12T08:49:57.815Z,46.25
2022-10-12T08:55:07.738Z,38.85
2022-10-12T09:00:14.790Z,45.97
2022-10-12T09:05:26.522Z,39.20
2022-10-12T09:10:44.823Z,36.83
2022-10-12T09:15:53.799Z,40.92
2022-10-12T09:20:58.859Z,35.80
2022-10-12T09:26:12.583Z,29.33
2022-10-12T09:31:44.270Z,40.33
2022-10-12T09:36:48.146Z,27.55
2022-10-12T09:41:53.158Z,24.12
2022-10-12T09:46:59.989Z,27.25
2022-10-12T09:52:06.675Z,28.98
2022-10-12T09:57:11.664Z,23.62
2022-10-12T10:02:18.630Z,23.83
2022-10-12T10:07:27.403Z,19.37
2022-10-12T10:12:32.934Z,20.08
2022-10-12T10:17:36.789Z,17.05
2022-10-12T10:22:48.952Z,13.98
2022-10-12T10:28:11.748Z,14.77
2022-10-12T10:33:19.930Z,14.48
2022-10-12T10:43:30.922Z,13.93
2022-10-12T10:48:53.086Z,13.55
2022-10-12T10:54:13.881Z,13.73
2022-10-12T10:59:26.899Z,10.70
2022-10-12T11:04:36.205Z,13.90
2022-10-12T11:09:44.382Z,15.25
2022-10-12T11:14:53.221Z,12.10
2022-10-12T11:20:07.271Z,14.50
2022-10-12T11:25:20.718Z,11.98
2022-10-12T11:30:27.788Z,14.63
2022-10-12T11:35:34.944Z,12.48
2022-10-12T11:46:13.408Z,16.05
2022-10-12T11:51:17.120Z,9.75
2022-10-12T11:56:24.587Z,14.27
2022-10-12T12:01:48.073Z,12.07
2022-10-12T12:06:55.114Z,12.68
2022-10-12T12:12:16.163Z,7.65
2022-10-12T12:17:29.450Z,13.43
2022-10-12T12:22:50.649Z,8.13
2022-10-12T12:27:57.360Z,8.45
2022-10-12T12:33:04.275Z,9.93
2022-10-12T12:38:18.465Z,9.75
2022-10-12T12:43:37.437Z,9.38
2022-10-12T12:49:01.296Z,12.80
2022-10-12T12:54:07.507Z,12.85
2022-10-12T12:59:39.115Z,13.13
2022-10-12T13:05:08.414Z,10.07
2022-10-12T13:10:24.009Z,9.75
2022-10-12T13:15:43.619Z,11.02
2022-10-12T13:20:50.220Z,11.38
2022-10-12T13:25:57.407Z,9.40
2022-10-12T13:31:05.787Z,9.82
2022-10-12T13:36:19.379Z,14.80
2022-10-12T13:41:23.854Z,14.23
2022-10-12T13:46:41.563Z,15.77
2022-10-12T13:51:49.559Z,14.77
2022-10-12T13:56:58.025Z,16.17
2022-10-12T14:02:03.362Z,13.52
2022-10-12T14:07:16.843Z,12.15
2022-10-12T14:12:25.341Z,10.07
2022-10-12T14:17:29.556Z,9.15
2022-10-12T14:22:34.681Z,9.23
2022-10-12T14:27:40.670Z,10.43
2022-10-12T14:32:45.160Z,10.45
2022-10-12T14:37:52.208Z,10.50
2022-10-12T14:42:59.448Z,12.05
2022-10-12T14:48:05.061Z,6.63
2022-10-12T14:53:12.755Z,14.27
2022-10-12T14:58:18.051Z,13.13
2022-10-12T15:03:21.677Z,13.30
2022-10-12T15:08:26.833Z,11.88
2022-10-12T15:13:30.497Z,11.10
2022-10-12T15:18:34.275Z,12.70
2022-10-12T15:23:39.296Z,12.10
2022-10-12T15:28:43.769Z,12.88
2022-10-12T15:33:47.880Z,12.30
2022-10-12T15:38:52.943Z,12.70
2022-10-12T15:43:56.717Z,14.20
2022-10-12T15:49:00.557Z,10.38
2022-10-12T15:54:05.740Z,17.33
2022-10-12T15:59:09.516Z,11.30
2022-10-12T16:04:15.733Z,11.85
2022-10-12T16:09:20.805Z,18.77
2022-10-12T16:14:24.566Z,14.30
2022-10-12T16:19:28.283Z,14.75
2022-10-12T16:24:33.301Z,11.35
2022-10-12T16:29:37.260Z,12.90
2022-10-12T16:34:40.985Z,9.45
2022-10-12T16:39:46.015Z,11.43
2022-10-12T16:44:49.868Z,12.60
2022-10-12T16:49:53.919Z,8.18
2022-10-12T16:54:58.994Z,10.48
2022-10-12T17:00:03.034Z,7.80
2022-10-12T17:05:07.091Z,11.25
2022-10-12T17:10:12.273Z,12.20
2022-10-12T17:15:16.206Z,12.23
2022-10-12T17:20:19.906Z,9.98
2022-10-12T17:25:24.994Z,18.05
2022-10-12T17:30:28.784Z,19.87
2022-10-12T17:35:32.609Z,14.87
2022-10-12T17:40:39.605Z,15.07
2022-10-12T17:45:43.322Z,14.93
2022-10-12T17:50:47.096Z,13.40
2022-10-12T17:55:58.825Z,21.92
2022-10-12T18:01:05.217Z,20.17
2022-10-12T18:06:10.983Z,20.50
2022-10-12T18:11:17.898Z,23.20
2022-10-12T18:16:24.308Z,25.45
2022-10-12T18:21:29.762Z,15.32
2022-10-12T18:26:35.082Z,16.02
2022-10-12T18:31:38.816Z,21.45
2022-10-12T18:36:42.843Z,15.68
2022-10-12T18:41:51.501Z,12.45
2022-10-12T18:46:55.604Z,15.13
2022-10-12T18:51:59.454Z,23.48
2022-10-12T18:57:04.705Z,16.67
2022-10-12T19:02:08.642Z,15.27
2022-10-12T19:07:12.582Z,16.35
2022-10-12T19:12:19.677Z,28.35
2022-10-12T19:17:23.761Z,27.10
2022-10-12T19:22:28.099Z,19.05
2022-10-12T19:27:33.138Z,22.27
2022-10-12T19:32:38.346Z,16.48
2022-10-12T19:37:42.038Z,16.75
2022-10-12T19:42:48.174Z,19.98
2022-10-12T19:47:51.873Z,27.00
2022-10-12T19:52:55.585Z,21.02
2022-10-12T19:58:01.326Z,23.52
2022-10-12T20:03:05.924Z,18.70
2022-10-12T20:08:09.615Z,24.58
2022-10-12T20:13:14.785Z,22.85
2022-10-12T20:18:18.475Z,24.08
2022-10-12T20:23:23.470Z,21.85
2022-10-12T20:28:28.637Z,25.80
2022-10-12T20:33:32.445Z,21.35
2022-10-12T20:38:36.160Z,27.30
2022-10-12T20:43:41.752Z,16.17
2022-10-12T20:48:46.232Z,22.60
2022-10-12T20:53:50.805Z,23.67
2022-10-12T20:58:56.188Z,23.92
2022-10-12T21:03:59.955Z,15.73
2022-10-12T21:09:03.814Z,16.33
2022-10-12T21:14:11.919Z,21.77
2022-10-12T21:19:16.824Z,19.90
2022-10-12T21:24:20.766Z,19.35
2022-10-12T21:29:26.249Z,19.83
2022-10-12T21:34:29.929Z,15.07
2022-10-12T21:39:33.736Z,17.75
2022-10-12T21:44:38.788Z,18.95
2022-10-12T21:49:42.552Z,19.75
2022-10-12T21:54:46.980Z,26.12
2022-10-12T21:59:52.060Z,20.15
2022-10-12T22:04:55.737Z,30.15
2022-10-12T22:09:59.451Z,16.02
2022-10-12T22:15:05.187Z,20.70
2022-10-12T22:20:09.642Z,19.27
2022-10-12T22:25:16.937Z,18.33
2022-10-12T22:30:22.246Z,29.98
2022-10-12T22:35:26.023Z,23.35
2022-10-12T22:40:29.884Z,27.85
2022-10-12T22:45:35.060Z,19.95
2022-10-12T22:50:38.744Z,19.20
2022-10-12T22:55:42.537Z,19.75
2022-10-12T23:00:48.018Z,21.52
2022-10-12T23:05:52.020Z,21.92
2022-10-12T23:10:55.817Z,27.05
2022-10-12T23:16:05.847Z,20.02
2022-10-12T23:21:11.752Z,27.00
2022-10-12T23:26:18.002Z,18.83
2022-10-12T23:31:25.158Z,23.02
2022-10-12T23:36:30.245Z,20.73
2022-10-12T23:41:33.925Z,26.35
2022-10-12T23:46:38.930Z,22.23
2022-10-12T23:51:42.737Z,23.33
2022-10-12T23:56:46.488Z,21.73
